sensor_id;sensor_type;location;lat;lon;timestamp;temperature;humidity
20102;DHT22;10210;52.284;9.892;2023-04-25T00:01:24;11.20;99.90
20102;DHT22;10210;52.284;9.892;2023-04-25T00:03:50;11.20;99.90
20102;DHT22;10210;52.284;9.892;2023-04-25T00:06:16;11.20;99.90
20102;DHT22;10210;52.284;9.892;2023-04-25T00:08:43;11.20;99.90
20102;DHT22;10210;52.284;9.892;2023-04-25T00:11:09;11.20;99.90
20102;DHT22;10210;52.284;9.892;2023-04-25T00:13:34;11.20;99.90
20102;DHT22;10210;52.284;9.892;2023-04-25T00:16:00;11.20;99.90
20102;DHT22;10210;52.284;9.892;2023-04-25T00:18:28;11.30;99.90
20102;DHT22;10210;52.284;9.892;2023-04-25T00:20:58;11.20;99.90
20102;DHT22;10210;52.284;9.892;2023-04-25T00:23:24;11.20;99.90
20102;DHT22;10210;52.284;9.892;2023-04-25T00:25:50;11.30;99.90
20102;DHT22;10210;52.284;9.892;2023-04-25T00:28:16;11.30;99.90
20102;DHT22;10210;52.284;9.892;2023-04-25T00:30:42;11.30;99.90
20102;DHT22;10210;52.284;9.892;2023-04-25T00:33:09;11.30;99.90
20102;DHT22;10210;52.284;9.892;2023-04-25T00:35:35;11.30;99.90
20102;DHT22;10210;52.284;9.892;2023-04-25T00:38:01;11.30;99.90
20102;DHT22;10210;52.284;9.892;2023-04-25T00:40:28;11.30;99.90
20102;DHT22;10210;52.284;9.892;2023-04-25T00:42:53;11.30;99.90
20102;DHT22;10210;52.284;9.892;2023-04-25T00:45:20;11.30;99.90
20102;DHT22;10210;52.284;9.892;2023-04-25T00:47:46;11.30;99.90
20102;DHT22;10210;52.284;9.892;2023-04-25T00:50:13;11.30;99.90
20102;DHT22;10210;52.284;9.892;2023-04-25T00:52:43;11.30;99.90
20102;DHT22;10210;52.284;9.892;2023-04-25T00:55:11;11.30;99.90
20102;DHT22;10210;52.284;9.892;2023-04-25T00:57:38;11.30;99.90
20102;DHT22;10210;52.284;9.892;2023-04-25T01:00:05;11.30;99.90
20102;DHT22;10210;52.284;9.892;2023-04-25T01:02:35;11.30;99.90
20102;DHT22;10210;52.284;9.892;2023-04-25T01:05:01;11.30;99.90
20102;DHT22;10210;52.284;9.892;2023-04-25T01:07:28;11.30;99.90
20102;DHT22;10210;52.284;9.892;2023-04-25T01:09:54;11.30;99.90
20102;DHT22;10210;52.284;9.892;2023-04-25T01:12:20;11.20;99.90
20102;DHT22;10210;52.284;9.892;2023-04-25T01:14:46;11.20;99.90
20102;DHT22;10210;52.284;9.892;2023-04-25T01:17:12;11.20;99.90
20102;DHT22;10210;52.284;9.892;2023-04-25T01:19:38;11.20;99.90
20102;DHT22;10210;52.284;9.892;2023-04-25T01:22:04;11.20;99.90
20102;DHT22;10210;52.284;9.892;2023-04-25T01:24:32;11.10;99.90
20102;DHT22;10210;52.284;9.892;2023-04-25T01:26:59;11.10;99.90
20102;DHT22;10210;52.284;9.892;2023-04-25T01:29:26;11.10;99.90
20102;DHT22;10210;52.284;9.892;2023-04-25T01:31:53;11.10;99.90
20102;DHT22;10210;52.284;9.892;2023-04-25T01:34:19;11.10;99.90
20102;DHT22;10210;52.284;9.892;2023-04-25T01:36:49;11.10;99.90
20102;DHT22;10210;52.284;9.892;2023-04-25T01:39:16;11.00;99.90
20102;DHT22;10210;52.284;9.892;2023-04-25T01:41:43;11.00;99.90
20102;DHT22;10210;52.284;9.892;2023-04-25T01:44:09;11.00;99.90
20102;DHT22;10210;52.284;9.892;2023-04-25T01:46:35;10.90;99.90
20102;DHT22;10210;52.284;9.892;2023-04-25T01:49:01;10.90;99.90
20102;DHT22;10210;52.284;9.892;2023-04-25T01:51:27;10.90;99.90
20102;DHT22;10210;52.284;9.892;2023-04-25T01:53:54;10.90;99.90
20102;DHT22;10210;52.284;9.892;2023-04-25T01:56:20;10.90;99.90
20102;DHT22;10210;52.284;9.892;2023-04-25T01:58:46;10.90;99.90
20102;DHT22;10210;52.284;9.892;2023-04-25T02:01:12;10.90;99.90
20102;DHT22;10210;52.284;9.892;2023-04-25T02:03:38;10.80;99.90
20102;DHT22;10210;52.284;9.892;2023-04-25T02:06:03;10.80;99.90
20102;DHT22;10210;52.284;9.892;2023-04-25T02:08:29;10.80;99.90
20102;DHT22;10210;52.284;9.892;2023-04-25T02:10:55;10.80;99.90
20102;DHT22;10210;52.284;9.892;2023-04-25T02:13:21;10.80;99.90
20102;DHT22;10210;52.284;9.892;2023-04-25T02:15:46;10.80;99.90
20102;DHT22;10210;52.284;9.892;2023-04-25T02:18:12;10.80;99.90
20102;DHT22;10210;52.284;9.892;2023-04-25T02:20:38;10.80;99.90
20102;DHT22;10210;52.284;9.892;2023-04-25T02:23:04;10.80;99.90
20102;DHT22;10210;52.284;9.892;2023-04-25T02:25:29;10.80;99.90
20102;DHT22;10210;52.284;9.892;2023-04-25T02:27:55;10.80;99.90
20102;DHT22;10210;52.284;9.892;2023-04-25T02:30:21;10.80;99.90
20102;DHT22;10210;52.284;9.892;2023-04-25T02:32:46;10.80;99.90
20102;DHT22;10210;52.284;9.892;2023-04-25T02:35:12;10.80;99.90
20102;DHT22;10210;52.284;9.892;2023-04-25T02:37:39;10.80;99.90
20102;DHT22;10210;52.284;9.892;2023-04-25T02:40:06;10.80;99.90
20102;DHT22;10210;52.284;9.892;2023-04-25T02:42:32;10.80;99.90
20102;DHT22;10210;52.284;9.892;2023-04-25T02:44:58;10.80;99.90
20102;DHT22;10210;52.284;9.892;2023-04-25T02:47:24;10.80;99.90
20102;DHT22;10210;52.284;9.892;2023-04-25T02:49:49;10.70;99.90
20102;DHT22;10210;52.284;9.892;2023-04-25T02:52:15;10.70;99.90
20102;DHT22;10210;52.284;9.892;2023-04-25T02:54:41;10.60;99.90
20102;DHT22;10210;52.284;9.892;2023-04-25T02:57:06;10.50;99.90
20102;DHT22;10210;52.284;9.892;2023-04-25T02:59:33;10.50;99.90
20102;DHT22;10210;52.284;9.892;2023-04-25T03:01:59;10.50;99.90
20102;DHT22;10210;52.284;9.892;2023-04-25T03:04:24;10.40;99.90
20102;DHT22;10210;52.284;9.892;2023-04-25T03:06:51;10.40;99.90
20102;DHT22;10210;52.284;9.892;2023-04-25T03:09:17;10.40;99.90
20102;DHT22;10210;52.284;9.892;2023-04-25T03:11:44;10.40;99.90
20102;DHT22;10210;52.284;9.892;2023-04-25T03:14:10;10.30;99.90
20102;DHT22;10210;52.284;9.892;2023-04-25T03:16:36;10.30;99.90
20102;DHT22;10210;52.284;9.892;2023-04-25T03:19:02;10.30;99.90
20102;DHT22;10210;52.284;9.892;2023-04-25T03:21:29;10.30;99.90
20102;DHT22;10210;52.284;9.892;2023-04-25T03:23:57;10.30;99.90
20102;DHT22;10210;52.284;9.892;2023-04-25T03:26:23;10.30;99.90
20102;DHT22;10210;52.284;9.892;2023-04-25T03:28:49;10.30;99.90
20102;DHT22;10210;52.284;9.892;2023-04-25T03:31:15;10.30;99.90
20102;DHT22;10210;52.284;9.892;2023-04-25T03:33:41;10.30;99.90
20102;DHT22;10210;52.284;9.892;2023-04-25T03:36:07;10.30;99.90
20102;DHT22;10210;52.284;9.892;2023-04-25T03:38:33;10.30;99.90
20102;DHT22;10210;52.284;9.892;2023-04-25T03:40:58;10.30;99.90
20102;DHT22;10210;52.284;9.892;2023-04-25T03:43:24;10.30;99.90
20102;DHT22;10210;52.284;9.892;2023-04-25T03:45:50;10.30;99.90
20102;DHT22;10210;52.284;9.892;2023-04-25T03:48:16;10.30;99.90
20102;DHT22;10210;52.284;9.892;2023-04-25T03:50:42;10.30;99.90
20102;DHT22;10210;52.284;9.892;2023-04-25T03:53:07;10.30;99.90
20102;DHT22;10210;52.284;9.892;2023-04-25T03:55:33;10.30;99.90
20102;DHT22;10210;52.284;9.892;2023-04-25T03:57:58;10.20;99.90
20102;DHT22;10210;52.284;9.892;2023-04-25T04:00:25;10.20;99.90
20102;DHT22;10210;52.284;9.892;2023-04-25T04:02:50;10.20;99.90
20102;DHT22;10210;52.284;9.892;2023-04-25T04:05:16;10.20;99.90
20102;DHT22;10210;52.284;9.892;2023-04-25T04:07:42;10.20;99.90
20102;DHT22;10210;52.284;9.892;2023-04-25T04:10:09;10.20;99.90
20102;DHT22;10210;52.284;9.892;2023-04-25T04:12:36;10.20;99.90
20102;DHT22;10210;52.284;9.892;2023-04-25T04:15:03;10.20;99.90
20102;DHT22;10210;52.284;9.892;2023-04-25T04:17:31;10.20;99.90
20102;DHT22;10210;52.284;9.892;2023-04-25T04:19:56;10.10;99.90
20102;DHT22;10210;52.284;9.892;2023-04-25T04:22:23;10.10;99.90
20102;DHT22;10210;52.284;9.892;2023-04-25T04:24:49;10.10;99.90
20102;DHT22;10210;52.284;9.892;2023-04-25T04:27:17;10.10;99.90
20102;DHT22;10210;52.284;9.892;2023-04-25T04:29:44;10.10;99.90
20102;DHT22;10210;52.284;9.892;2023-04-25T04:32:13;10.10;99.90
20102;DHT22;10210;52.284;9.892;2023-04-25T04:34:40;10.10;99.90
20102;DHT22;10210;52.284;9.892;2023-04-25T04:37:06;10.10;99.90
20102;DHT22;10210;52.284;9.892;2023-04-25T04:39:33;10.10;99.90
20102;DHT22;10210;52.284;9.892;2023-04-25T04:41:59;10.10;99.90
20102;DHT22;10210;52.284;9.892;2023-04-25T04:44:27;10.10;99.90
20102;DHT22;10210;52.284;9.892;2023-04-25T04:46:53;10.10;99.90
20102;DHT22;10210;52.284;9.892;2023-04-25T04:49:20;10.10;99.90
20102;DHT22;10210;52.284;9.892;2023-04-25T04:51:46;10.10;99.90
20102;DHT22;10210;52.284;9.892;2023-04-25T04:54:12;10.00;99.90
20102;DHT22;10210;52.284;9.892;2023-04-25T04:56:38;10.00;99.90
20102;DHT22;10210;52.284;9.892;2023-04-25T04:59:04;10.10;99.90
20102;DHT22;10210;52.284;9.892;2023-04-25T05:01:30;10.10;99.90
20102;DHT22;10210;52.284;9.892;2023-04-25T05:03:56;10.10;99.90
20102;DHT22;10210;52.284;9.892;2023-04-25T05:06:26;10.10;99.90
20102;DHT22;10210;52.284;9.892;2023-04-25T05:08:55;10.10;99.90
20102;DHT22;10210;52.284;9.892;2023-04-25T05:11:22;10.10;99.90
20102;DHT22;10210;52.284;9.892;2023-04-25T05:13:52;10.10;99.90
20102;DHT22;10210;52.284;9.892;2023-04-25T05:16:18;10.10;99.90
20102;DHT22;10210;52.284;9.892;2023-04-25T05:18:45;10.10;99.90
20102;DHT22;10210;52.284;9.892;2023-04-25T05:21:11;10.10;99.90
20102;DHT22;10210;52.284;9.892;2023-04-25T05:23:37;10.10;99.90
20102;DHT22;10210;52.284;9.892;2023-04-25T05:26:03;10.10;99.90
20102;DHT22;10210;52.284;9.892;2023-04-25T05:28:29;10.10;99.90
20102;DHT22;10210;52.284;9.892;2023-04-25T05:30:54;10.10;99.90
20102;DHT22;10210;52.284;9.892;2023-04-25T05:33:20;10.20;99.90
20102;DHT22;10210;52.284;9.892;2023-04-25T05:35:46;10.10;99.90
20102;DHT22;10210;52.284;9.892;2023-04-25T05:38:12;10.10;99.90
20102;DHT22;10210;52.284;9.892;2023-04-25T05:40:38;10.10;99.90
20102;DHT22;10210;52.284;9.892;2023-04-25T05:43:03;10.20;99.90
20102;DHT22;10210;52.284;9.892;2023-04-25T05:45:29;10.20;99.90
20102;DHT22;10210;52.284;9.892;2023-04-25T05:47:55;10.20;99.90
20102;DHT22;10210;52.284;9.892;2023-04-25T05:50:21;10.20;99.90
20102;DHT22;10210;52.284;9.892;2023-04-25T05:52:47;10.20;99.90
20102;DHT22;10210;52.284;9.892;2023-04-25T05:55:12;10.30;99.90
20102;DHT22;10210;52.284;9.892;2023-04-25T05:57:39;10.30;99.90
20102;DHT22;10210;52.284;9.892;2023-04-25T06:00:08;10.40;99.90
20102;DHT22;10210;52.284;9.892;2023-04-25T06:02:34;10.40;99.90
20102;DHT22;10210;52.284;9.892;2023-04-25T06:05:00;10.40;99.90
20102;DHT22;10210;52.284;9.892;2023-04-25T06:07:28;10.50;99.90
20102;DHT22;10210;52.284;9.892;2023-04-25T06:09:55;10.50;99.90
20102;DHT22;10210;52.284;9.892;2023-04-25T06:12:21;10.50;99.90
20102;DHT22;10210;52.284;9.892;2023-04-25T06:14:46;10.50;99.90
20102;DHT22;10210;52.284;9.892;2023-04-25T06:17:12;10.50;99.90
20102;DHT22;10210;52.284;9.892;2023-04-25T06:19:38;10.50;99.90
20102;DHT22;10210;52.284;9.892;2023-04-25T06:22:04;10.50;99.90
20102;DHT22;10210;52.284;9.892;2023-04-25T06:24:29;10.50;99.90
20102;DHT22;10210;52.284;9.892;2023-04-25T06:26:55;10.50;99.90
20102;DHT22;10210;52.284;9.892;2023-04-25T06:29:21;10.50;99.90
20102;DHT22;10210;52.284;9.892;2023-04-25T06:31:47;10.50;99.90
20102;DHT22;10210;52.284;9.892;2023-04-25T06:34:12;10.50;99.90
20102;DHT22;10210;52.284;9.892;2023-04-25T06:36:38;10.50;99.90
20102;DHT22;10210;52.284;9.892;2023-04-25T06:39:03;10.50;99.90
20102;DHT22;10210;52.284;9.892;2023-04-25T06:41:29;10.50;99.90
20102;DHT22;10210;52.284;9.892;2023-04-25T06:43:55;10.50;99.90
20102;DHT22;10210;52.284;9.892;2023-04-25T06:46:21;10.60;99.90
20102;DHT22;10210;52.284;9.892;2023-04-25T06:48:46;10.60;99.90
20102;DHT22;10210;52.284;9.892;2023-04-25T06:51:12;10.60;99.90
20102;DHT22;10210;52.284;9.892;2023-04-25T06:53:41;10.60;99.90
20102;DHT22;10210;52.284;9.892;2023-04-25T06:56:06;10.70;99.90
20102;DHT22;10210;52.284;9.892;2023-04-25T06:58:32;10.70;99.90
20102;DHT22;10210;52.284;9.892;2023-04-25T07:00:58;10.80;99.90
20102;DHT22;10210;52.284;9.892;2023-04-25T07:03:23;10.90;99.90
20102;DHT22;10210;52.284;9.892;2023-04-25T07:05:50;10.90;99.90
20102;DHT22;10210;52.284;9.892;2023-04-25T07:08:16;11.00;99.90
20102;DHT22;10210;52.284;9.892;2023-04-25T07:10:48;11.10;99.90
20102;DHT22;10210;52.284;9.892;2023-04-25T07:13:14;11.10;99.90
20102;DHT22;10210;52.284;9.892;2023-04-25T07:15:40;11.20;99.90
20102;DHT22;10210;52.284;9.892;2023-04-25T07:18:06;11.20;99.90
20102;DHT22;10210;52.284;9.892;2023-04-25T07:20:31;11.30;99.90
20102;DHT22;10210;52.284;9.892;2023-04-25T07:22:58;11.30;99.90
20102;DHT22;10210;52.284;9.892;2023-04-25T07:25:23;11.30;99.90
20102;DHT22;10210;52.284;9.892;2023-04-25T07:27:49;11.40;99.90
20102;DHT22;10210;52.284;9.892;2023-04-25T07:30:15;11.40;99.90
20102;DHT22;10210;52.284;9.892;2023-04-25T07:32:41;11.40;99.90
20102;DHT22;10210;52.284;9.892;2023-04-25T07:35:07;11.50;99.90
20102;DHT22;10210;52.284;9.892;2023-04-25T07:37:34;11.50;99.90
20102;DHT22;10210;52.284;9.892;2023-04-25T07:39:59;11.50;99.90
20102;DHT22;10210;52.284;9.892;2023-04-25T07:42:25;11.50;99.90
20102;DHT22;10210;52.284;9.892;2023-04-25T07:44:51;11.50;99.90
20102;DHT22;10210;52.284;9.892;2023-04-25T07:47:17;11.50;99.90
20102;DHT22;10210;52.284;9.892;2023-04-25T07:49:44;11.50;99.90
20102;DHT22;10210;52.284;9.892;2023-04-25T07:52:13;11.40;99.90
20102;DHT22;10210;52.284;9.892;2023-04-25T07:54:39;11.40;99.90
20102;DHT22;10210;52.284;9.892;2023-04-25T07:57:05;11.30;99.90
20102;DHT22;10210;52.284;9.892;2023-04-25T07:59:32;11.30;99.90
20102;DHT22;10210;52.284;9.892;2023-04-25T08:01:58;11.30;99.90
20102;DHT22;10210;52.284;9.892;2023-04-25T08:04:24;11.20;99.90
20102;DHT22;10210;52.284;9.892;2023-04-25T08:06:51;11.20;99.90
20102;DHT22;10210;52.284;9.892;2023-04-25T08:09:17;11.20;99.90
20102;DHT22;10210;52.284;9.892;2023-04-25T08:11:43;11.20;99.90
20102;DHT22;10210;52.284;9.892;2023-04-25T08:14:09;11.20;99.90
20102;DHT22;10210;52.284;9.892;2023-04-25T08:16:35;11.20;99.90
20102;DHT22;10210;52.284;9.892;2023-04-25T08:19:00;11.30;99.90
20102;DHT22;10210;52.284;9.892;2023-04-25T08:21:26;11.30;99.90
20102;DHT22;10210;52.284;9.892;2023-04-25T08:23:54;11.30;99.90
20102;DHT22;10210;52.284;9.892;2023-04-25T08:26:20;11.30;99.90
20102;DHT22;10210;52.284;9.892;2023-04-25T08:28:46;11.30;99.90
20102;DHT22;10210;52.284;9.892;2023-04-25T08:31:12;11.40;99.90
20102;DHT22;10210;52.284;9.892;2023-04-25T08:33:38;11.40;99.90
20102;DHT22;10210;52.284;9.892;2023-04-25T08:36:06;11.40;99.90
20102;DHT22;10210;52.284;9.892;2023-04-25T08:38:32;11.60;99.90
20102;DHT22;10210;52.284;9.892;2023-04-25T08:40:59;11.80;99.90
20102;DHT22;10210;52.284;9.892;2023-04-25T08:43:26;12.00;99.90
20102;DHT22;10210;52.284;9.892;2023-04-25T08:46:00;12.30;99.90
20102;DHT22;10210;52.284;9.892;2023-04-25T08:48:27;12.60;99.90
20102;DHT22;10210;52.284;9.892;2023-04-25T08:50:56;12.80;99.90
20102;DHT22;10210;52.284;9.892;2023-04-25T08:53:29;13.00;99.90
20102;DHT22;10210;52.284;9.892;2023-04-25T08:55:59;13.20;99.90
20102;DHT22;10210;52.284;9.892;2023-04-25T08:58:27;13.30;99.90
20102;DHT22;10210;52.284;9.892;2023-04-25T09:00:53;13.50;99.90
20102;DHT22;10210;52.284;9.892;2023-04-25T09:03:19;13.70;99.90
20102;DHT22;10210;52.284;9.892;2023-04-25T09:05:45;13.70;99.90
20102;DHT22;10210;52.284;9.892;2023-04-25T09:08:11;13.70;99.90
20102;DHT22;10210;52.284;9.892;2023-04-25T09:10:38;13.60;99.90
20102;DHT22;10210;52.284;9.892;2023-04-25T09:13:10;13.50;99.90
20102;DHT22;10210;52.284;9.892;2023-04-25T09:15:49;13.40;99.90
20102;DHT22;10210;52.284;9.892;2023-04-25T09:18:23;13.20;99.90
20102;DHT22;10210;52.284;9.892;2023-04-25T09:20:52;13.00;99.90
20102;DHT22;10210;52.284;9.892;2023-04-25T09:23:19;12.80;99.90
20102;DHT22;10210;52.284;9.892;2023-04-25T09:25:48;12.70;99.90
20102;DHT22;10210;52.284;9.892;2023-04-25T09:28:14;12.60;99.90
20102;DHT22;10210;52.284;9.892;2023-04-25T09:30:42;12.40;99.90
20102;DHT22;10210;52.284;9.892;2023-04-25T09:33:14;12.30;99.90
20102;DHT22;10210;52.284;9.892;2023-04-25T09:35:42;12.30;99.90
20102;DHT22;10210;52.284;9.892;2023-04-25T09:38:11;12.20;99.90
20102;DHT22;10210;52.284;9.892;2023-04-25T09:40:40;12.30;99.90
20102;DHT22;10210;52.284;9.892;2023-04-25T09:43:25;12.50;99.90
20102;DHT22;10210;52.284;9.892;2023-04-25T09:45:54;12.70;99.90
20102;DHT22;10210;52.284;9.892;2023-04-25T09:48:25;13.00;99.90
20102;DHT22;10210;52.284;9.892;2023-04-25T09:51:08;13.20;99.90
20102;DHT22;10210;52.284;9.892;2023-04-25T09:53:42;13.50;99.90
20102;DHT22;10210;52.284;9.892;2023-04-25T09:56:10;13.70;99.90
20102;DHT22;10210;52.284;9.892;2023-04-25T09:58:38;13.90;99.90
20102;DHT22;10210;52.284;9.892;2023-04-25T10:01:07;14.00;99.90
20102;DHT22;10210;52.284;9.892;2023-04-25T10:03:37;14.10;99.90
20102;DHT22;10210;52.284;9.892;2023-04-25T10:06:09;14.20;99.90
20102;DHT22;10210;52.284;9.892;2023-04-25T10:08:44;14.20;99.90
20102;DHT22;10210;52.284;9.892;2023-04-25T10:11:14;14.30;99.90
20102;DHT22;10210;52.284;9.892;2023-04-25T10:13:41;14.40;99.90
20102;DHT22;10210;52.284;9.892;2023-04-25T10:16:08;14.40;99.90
20102;DHT22;10210;52.284;9.892;2023-04-25T10:18:34;14.40;99.90
20102;DHT22;10210;52.284;9.892;2023-04-25T10:21:01;14.40;99.90
20102;DHT22;10210;52.284;9.892;2023-04-25T10:23:30;14.40;99.90
20102;DHT22;10210;52.284;9.892;2023-04-25T10:25:57;14.50;99.90
20102;DHT22;10210;52.284;9.892;2023-04-25T10:28:24;14.40;99.90
20102;DHT22;10210;52.284;9.892;2023-04-25T10:31:03;14.30;99.90
20102;DHT22;10210;52.284;9.892;2023-04-25T10:33:37;14.20;99.90
20102;DHT22;10210;52.284;9.892;2023-04-25T10:36:31;14.10;99.90
20102;DHT22;10210;52.284;9.892;2023-04-25T10:39:06;13.90;99.90
20102;DHT22;10210;52.284;9.892;2023-04-25T10:41:55;13.80;99.90
20102;DHT22;10210;52.284;9.892;2023-04-25T10:44:22;13.70;99.90
20102;DHT22;10210;52.284;9.892;2023-04-25T10:46:48;13.50;99.90
20102;DHT22;10210;52.284;9.892;2023-04-25T10:49:36;13.40;99.90
20102;DHT22;10210;52.284;9.892;2023-04-25T10:54:55;13.20;99.90
20102;DHT22;10210;52.284;9.892;2023-04-25T10:57:42;13.10;99.90
20102;DHT22;10210;52.284;9.892;2023-04-25T11:00:19;13.00;99.90
20102;DHT22;10210;52.284;9.892;2023-04-25T11:02:59;12.90;99.90
20102;DHT22;10210;52.284;9.892;2023-04-25T11:07:58;12.80;99.90
20102;DHT22;10210;52.284;9.892;2023-04-25T11:10:29;12.80;99.90
20102;DHT22;10210;52.284;9.892;2023-04-25T11:12:57;12.80;99.90
20102;DHT22;10210;52.284;9.892;2023-04-25T11:15:23;12.80;99.90
20102;DHT22;10210;52.284;9.892;2023-04-25T11:17:54;12.90;99.90
20102;DHT22;10210;52.284;9.892;2023-04-25T11:20:20;13.00;99.90
20102;DHT22;10210;52.284;9.892;2023-04-25T11:22:47;13.00;99.90
20102;DHT22;10210;52.284;9.892;2023-04-25T11:25:15;13.10;99.90
20102;DHT22;10210;52.284;9.892;2023-04-25T11:27:58;13.10;99.90
20102;DHT22;10210;52.284;9.892;2023-04-25T11:30:26;13.10;99.90
20102;DHT22;10210;52.284;9.892;2023-04-25T11:32:52;13.10;99.90
20102;DHT22;10210;52.284;9.892;2023-04-25T11:35:19;13.10;99.90
20102;DHT22;10210;52.284;9.892;2023-04-25T11:37:45;13.10;99.90
20102;DHT22;10210;52.284;9.892;2023-04-25T11:40:11;13.20;99.90
20102;DHT22;10210;52.284;9.892;2023-04-25T11:42:38;13.30;99.90
20102;DHT22;10210;52.284;9.892;2023-04-25T11:45:08;13.40;99.90
20102;DHT22;10210;52.284;9.892;2023-04-25T11:47:35;13.50;99.90
20102;DHT22;10210;52.284;9.892;2023-04-25T11:50:02;13.50;99.90
20102;DHT22;10210;52.284;9.892;2023-04-25T11:52:40;13.60;99.90
20102;DHT22;10210;52.284;9.892;2023-04-25T11:55:16;13.60;99.90
20102;DHT22;10210;52.284;9.892;2023-04-25T11:57:45;13.60;99.90
20102;DHT22;10210;52.284;9.892;2023-04-25T12:00:17;13.50;99.90
20102;DHT22;10210;52.284;9.892;2023-04-25T12:02:53;13.40;99.90
20102;DHT22;10210;52.284;9.892;2023-04-25T12:05:23;13.30;99.90
20102;DHT22;10210;52.284;9.892;2023-04-25T12:07:49;13.20;99.90
20102;DHT22;10210;52.284;9.892;2023-04-25T12:10:19;13.10;99.90
20102;DHT22;10210;52.284;9.892;2023-04-25T12:12:46;13.00;99.90
20102;DHT22;10210;52.284;9.892;2023-04-25T12:17:49;12.80;99.90
20102;DHT22;10210;52.284;9.892;2023-04-25T12:20:20;12.70;99.90
20102;DHT22;10210;52.284;9.892;2023-04-25T12:22:50;12.70;99.90
20102;DHT22;10210;52.284;9.892;2023-04-25T12:25:39;12.70;99.90
20102;DHT22;10210;52.284;9.892;2023-04-25T12:28:18;12.70;99.90
20102;DHT22;10210;52.284;9.892;2023-04-25T12:30:59;12.70;99.90
20102;DHT22;10210;52.284;9.892;2023-04-25T12:33:31;12.70;99.90
20102;DHT22;10210;52.284;9.892;2023-04-25T12:35:58;12.80;99.90
20102;DHT22;10210;52.284;9.892;2023-04-25T12:38:30;12.80;99.90
20102;DHT22;10210;52.284;9.892;2023-04-25T12:40:59;12.90;99.90
20102;DHT22;10210;52.284;9.892;2023-04-25T12:43:25;13.00;99.90
20102;DHT22;10210;52.284;9.892;2023-04-25T12:45:53;13.10;99.90
20102;DHT22;10210;52.284;9.892;2023-04-25T12:48:20;13.20;99.90
20102;DHT22;10210;52.284;9.892;2023-04-25T12:50:50;13.30;99.90
20102;DHT22;10210;52.284;9.892;2023-04-25T12:53:21;13.50;99.90
20102;DHT22;10210;52.284;9.892;2023-04-25T12:55:54;13.60;99.90
20102;DHT22;10210;52.284;9.892;2023-04-25T12:58:23;13.70;99.90
20102;DHT22;10210;52.284;9.892;2023-04-25T13:00:50;13.70;99.90
20102;DHT22;10210;52.284;9.892;2023-04-25T13:03:16;13.70;99.90
20102;DHT22;10210;52.284;9.892;2023-04-25T13:05:43;13.80;99.90
20102;DHT22;10210;52.284;9.892;2023-04-25T13:08:08;13.70;99.90
20102;DHT22;10210;52.284;9.892;2023-04-25T13:10:40;13.70;99.90
20102;DHT22;10210;52.284;9.892;2023-04-25T13:13:05;13.60;99.90
20102;DHT22;10210;52.284;9.892;2023-04-25T13:15:32;13.60;99.90
20102;DHT22;10210;52.284;9.892;2023-04-25T13:17:57;13.60;99.90
20102;DHT22;10210;52.284;9.892;2023-04-25T13:20:23;13.50;99.90
20102;DHT22;10210;52.284;9.892;2023-04-25T13:22:49;13.40;99.90
20102;DHT22;10210;52.284;9.892;2023-04-25T13:25:24;13.40;99.90
20102;DHT22;10210;52.284;9.892;2023-04-25T13:27:53;13.40;99.90
20102;DHT22;10210;52.284;9.892;2023-04-25T13:30:23;13.30;99.90
20102;DHT22;10210;52.284;9.892;2023-04-25T13:32:50;13.10;99.90
20102;DHT22;10210;52.284;9.892;2023-04-25T13:35:37;13.00;99.90
20102;DHT22;10210;52.284;9.892;2023-04-25T13:38:21;12.90;99.90
20102;DHT22;10210;52.284;9.892;2023-04-25T13:40:49;12.70;99.90
20102;DHT22;10210;52.284;9.892;2023-04-25T13:43:20;12.60;99.90
20102;DHT22;10210;52.284;9.892;2023-04-25T13:45:50;12.50;99.90
20102;DHT22;10210;52.284;9.892;2023-04-25T13:48:16;12.40;99.90
20102;DHT22;10210;52.284;9.892;2023-04-25T13:50:41;12.40;99.90
20102;DHT22;10210;52.284;9.892;2023-04-25T13:53:07;12.30;99.90
20102;DHT22;10210;52.284;9.892;2023-04-25T13:55:41;12.30;99.90
20102;DHT22;10210;52.284;9.892;2023-04-25T13:58:11;12.30;99.90
20102;DHT22;10210;52.284;9.892;2023-04-25T14:00:40;12.30;99.90
20102;DHT22;10210;52.284;9.892;2023-04-25T14:03:08;12.40;99.90
20102;DHT22;10210;52.284;9.892;2023-04-25T14:05:35;12.50;99.90
20102;DHT22;10210;52.284;9.892;2023-04-25T14:08:14;12.70;99.90
20102;DHT22;10210;52.284;9.892;2023-04-25T14:10:40;12.80;99.90
20102;DHT22;10210;52.284;9.892;2023-04-25T14:13:06;13.00;99.90
20102;DHT22;10210;52.284;9.892;2023-04-25T14:15:32;13.10;99.90
20102;DHT22;10210;52.284;9.892;2023-04-25T14:17:59;13.20;99.90
20102;DHT22;10210;52.284;9.892;2023-04-25T14:20:26;13.30;99.90
20102;DHT22;10210;52.284;9.892;2023-04-25T14:23:00;13.40;99.90
20102;DHT22;10210;52.284;9.892;2023-04-25T14:25:27;13.30;99.90
20102;DHT22;10210;52.284;9.892;2023-04-25T14:27:53;13.30;99.90
20102;DHT22;10210;52.284;9.892;2023-04-25T14:30:19;13.20;99.90
20102;DHT22;10210;52.284;9.892;2023-04-25T14:32:52;13.20;99.90
20102;DHT22;10210;52.284;9.892;2023-04-25T14:35:20;13.10;99.90
20102;DHT22;10210;52.284;9.892;2023-04-25T14:37:46;13.00;99.90
20102;DHT22;10210;52.284;9.892;2023-04-25T14:40:12;12.90;99.90
20102;DHT22;10210;52.284;9.892;2023-04-25T14:42:40;12.70;99.90
20102;DHT22;10210;52.284;9.892;2023-04-25T14:45:18;12.70;99.90
20102;DHT22;10210;52.284;9.892;2023-04-25T14:47:44;12.60;99.90
20102;DHT22;10210;52.284;9.892;2023-04-25T14:50:12;12.60;99.90
20102;DHT22;10210;52.284;9.892;2023-04-25T14:52:38;12.70;99.90
20102;DHT22;10210;52.284;9.892;2023-04-25T14:55:04;12.80;99.90
20102;DHT22;10210;52.284;9.892;2023-04-25T14:57:38;12.80;99.90
20102;DHT22;10210;52.284;9.892;2023-04-25T15:00:07;13.00;99.90
20102;DHT22;10210;52.284;9.892;2023-04-25T15:02:35;13.00;99.90
20102;DHT22;10210;52.284;9.892;2023-04-25T15:05:01;13.20;99.90
20102;DHT22;10210;52.284;9.892;2023-04-25T15:07:28;13.30;99.90
20102;DHT22;10210;52.284;9.892;2023-04-25T15:10:04;13.40;99.90
20102;DHT22;10210;52.284;9.892;2023-04-25T15:12:31;13.50;99.90
20102;DHT22;10210;52.284;9.892;2023-04-25T15:14:57;13.50;99.90
20102;DHT22;10210;52.284;9.892;2023-04-25T15:17:23;13.60;99.90
20102;DHT22;10210;52.284;9.892;2023-04-25T15:19:48;13.60;99.90
20102;DHT22;10210;52.284;9.892;2023-04-25T15:22:30;13.60;99.90
20102;DHT22;10210;52.284;9.892;2023-04-25T15:24:59;13.60;99.90
20102;DHT22;10210;52.284;9.892;2023-04-25T15:27:31;13.50;99.90
20102;DHT22;10210;52.284;9.892;2023-04-25T15:29:57;13.40;99.90
20102;DHT22;10210;52.284;9.892;2023-04-25T15:32:23;13.40;99.90
20102;DHT22;10210;52.284;9.892;2023-04-25T15:34:57;13.40;99.90
20102;DHT22;10210;52.284;9.892;2023-04-25T15:37:23;13.30;99.90
20102;DHT22;10210;52.284;9.892;2023-04-25T15:40:01;13.20;99.90
20102;DHT22;10210;52.284;9.892;2023-04-25T15:42:39;13.20;99.90